Murtaugh, Idaho
Current Conditions -  °F | °C
As of 11:53 PM on Thursday 27 Nov 2014 (Local Time) from KTWF Reporting Station
Clear Clear  
Wind Chill: 56°   Ceiling: Unl
Heat Index: 56°   Visibility: 10mi
Dew Point: 27°   Wind: 15mph
Humidity: 33%   Direction: 180°S
Pressure: 30"   Gusts: NA
Location:  42.49°N, 114.16°W
Report Text: KTWF 280653Z AUTO 18013KT 10SM CLR 13/M03 A3000 RMK AO2 SLP118 T01331028 401890067
Loading
Personal Weather Stations






























Interactive Weather Map New forecast layout! Learn more

10-Day Weather Forecast

Advertisements
Track Severe Weather on mobile